createdAt,value
2019-01-19T00:00:00.848Z,11.40
2019-01-19T00:01:00.794Z,10.90
2019-01-19T00:02:00.769Z,11.10
2019-01-19T00:03:00.743Z,10.70
2019-01-19T00:04:00.733Z,10.90
2019-01-19T00:05:00.730Z,10.80
2019-01-19T00:06:00.713Z,10.60
2019-01-19T00:07:00.706Z,10.80
2019-01-19T00:08:00.700Z,11.50
2019-01-19T00:09:00.717Z,11.00
2019-01-19T00:10:00.709Z,11.60
2019-01-19T00:11:00.682Z,10.40
2019-01-19T00:12:00.666Z,10.90
2019-01-19T00:13:00.640Z,11.00
2019-01-19T00:14:00.661Z,10.50
2019-01-19T00:15:00.629Z,10.70
2019-01-19T00:16:00.617Z,10.90
2019-01-19T00:17:00.596Z,11.30
2019-01-19T00:18:00.602Z,11.70
2019-01-19T00:19:00.572Z,11.50
2019-01-19T00:20:00.570Z,11.40
2019-01-19T00:21:00.558Z,12.10
2019-01-19T00:22:00.558Z,11.30
2019-01-19T00:23:00.536Z,10.80
2019-01-19T00:24:00.518Z,11.70
2019-01-19T00:25:00.517Z,11.70
2019-01-19T00:26:00.522Z,11.20
2019-01-19T00:27:00.488Z,11.40
2019-01-19T00:28:00.469Z,11.50
2019-01-19T00:29:00.473Z,11.40
2019-01-19T00:30:00.488Z,11.90
2019-01-19T00:31:00.457Z,10.80
2019-01-19T00:32:00.439Z,11.30
2019-01-19T00:33:00.419Z,11.60
2019-01-19T00:34:00.410Z,12.20
2019-01-19T00:35:00.390Z,11.80
2019-01-19T00:36:00.380Z,11.10
2019-01-19T00:37:00.396Z,11.70
2019-01-19T00:38:00.382Z,11.40
2019-01-19T00:39:00.359Z,12.20
2019-01-19T00:40:00.349Z,11.60
2019-01-19T00:41:00.327Z,12.10
2019-01-19T00:42:00.345Z,12.20
2019-01-19T00:43:00.316Z,12.40
2019-01-19T00:44:00.303Z,12.20
2019-01-19T00:45:00.288Z,12.30
2019-01-19T00:46:00.308Z,11.90
2019-01-19T00:47:01.699Z,12.50
2019-01-19T00:48:00.257Z,12.10
2019-01-19T00:49:00.256Z,11.90
2019-01-19T00:50:00.264Z,12.60
2019-01-19T00:51:00.222Z,12.10
2019-01-19T00:52:00.219Z,12.80
2019-01-19T00:53:00.252Z,12.80
2019-01-19T00:54:00.195Z,12.20
2019-01-19T00:55:00.256Z,13.00
2019-01-19T00:56:00.182Z,12.60
2019-01-19T00:57:00.162Z,13.30
2019-01-19T00:58:00.155Z,13.10
2019-01-19T00:59:00.136Z,13.50
2019-01-19T01:00:00.173Z,13.80
2019-01-19T01:01:00.119Z,13.70
2019-01-19T01:02:00.105Z,13.10
2019-01-19T01:03:00.108Z,13.10
2019-01-19T01:04:00.089Z,13.50
2019-01-19T01:05:00.090Z,15.20
2019-01-19T01:06:00.058Z,15.80
2019-01-19T01:07:00.044Z,15.10
2019-01-19T01:08:00.066Z,14.70
2019-01-19T01:09:00.025Z,14.10
2019-01-19T01:10:00.027Z,14.90
2019-01-19T01:11:00.015Z,14.80
2019-01-19T01:11:59.995Z,14.40
2019-01-19T01:13:00.015Z,13.80
2019-01-19T01:13:59.968Z,14.50
2019-01-19T01:14:59.985Z,14.50
2019-01-19T01:16:00.769Z,13.60
2019-01-19T01:16:59.934Z,13.70
2019-01-19T01:17:59.935Z,14.30
2019-01-19T01:18:59.919Z,14.50
2019-01-19T01:19:59.900Z,15.00
2019-01-19T01:20:59.888Z,14.40
2019-01-19T01:21:59.875Z,14.60
2019-01-19T01:22:59.886Z,14.70
2019-01-19T01:23:59.892Z,14.90
2019-01-19T01:24:59.856Z,14.60
2019-01-19T01:25:59.853Z,13.60
2019-01-19T01:26:59.820Z,13.80
2019-01-19T01:27:59.810Z,13.30
2019-01-19T01:28:59.799Z,13.40
2019-01-19T01:29:59.790Z,13.90
2019-01-19T01:30:59.777Z,13.60
2019-01-19T01:31:59.771Z,13.70
2019-01-19T01:32:59.757Z,13.70
2019-01-19T01:33:59.751Z,14.00
2019-01-19T01:34:59.746Z,13.30
2019-01-19T01:35:59.720Z,13.90
2019-01-19T01:36:59.709Z,13.90
2019-01-19T01:37:59.698Z,14.20
2019-01-19T01:38:59.689Z,14.10
2019-01-19T01:39:59.720Z,14.40
2019-01-19T01:40:59.670Z,14.00
2019-01-19T01:41:59.658Z,14.00
2019-01-19T01:42:59.647Z,14.60
2019-01-19T01:43:59.637Z,14.50
2019-01-19T01:44:59.646Z,13.70
2019-01-19T01:45:59.643Z,14.70
2019-01-19T01:46:59.605Z,15.70
2019-01-19T01:47:59.590Z,15.10
2019-01-19T01:48:59.585Z,15.80
2019-01-19T01:49:59.574Z,14.70
2019-01-19T01:50:59.563Z,15.20
2019-01-19T01:51:59.574Z,14.90
2019-01-19T01:52:59.567Z,15.40
2019-01-19T01:53:59.528Z,14.30
2019-01-19T01:54:59.515Z,15.00
2019-01-19T01:55:59.512Z,14.70
2019-01-19T01:56:59.493Z,14.80
2019-01-19T01:57:59.482Z,14.50
2019-01-19T01:58:59.486Z,14.40
2019-01-19T01:59:59.460Z,14.10
2019-01-19T02:00:59.471Z,14.70
2019-01-19T02:01:59.452Z,14.60
2019-01-19T02:02:59.477Z,14.50
2019-01-19T02:03:59.449Z,14.40
2019-01-19T02:04:59.404Z,14.80
2019-01-19T02:05:59.430Z,15.00
2019-01-19T02:06:59.403Z,14.40
2019-01-19T02:07:59.371Z,14.00
2019-01-19T02:08:59.359Z,14.70
2019-01-19T02:09:59.372Z,14.80
2019-01-19T02:10:59.356Z,14.70
2019-01-19T02:11:59.346Z,14.70
2019-01-19T02:12:59.339Z,15.00
2019-01-19T02:13:59.317Z,14.70
2019-01-19T02:14:59.304Z,14.70
2019-01-19T02:15:59.314Z,15.10
2019-01-19T02:16:59.287Z,14.10
2019-01-19T02:17:59.269Z,15.50
2019-01-19T02:18:59.269Z,17.00
2019-01-19T02:19:59.242Z,17.70
2019-01-19T02:20:59.230Z,18.10
2019-01-19T02:21:59.223Z,16.60
2019-01-19T02:22:59.217Z,15.60
2019-01-19T02:23:59.197Z,16.30
2019-01-19T02:24:59.187Z,17.10
2019-01-19T02:25:59.177Z,16.50
2019-01-19T02:26:59.168Z,16.40
2019-01-19T02:27:59.191Z,15.90
2019-01-19T02:28:59.150Z,16.10
2019-01-19T02:29:59.139Z,16.60
2019-01-19T02:30:59.125Z,16.30
2019-01-19T02:31:59.801Z,16.20
2019-01-19T02:32:59.115Z,15.70
2019-01-19T02:33:59.091Z,15.80
2019-01-19T02:34:59.083Z,16.40
2019-01-19T02:35:59.082Z,15.80
2019-01-19T02:36:59.054Z,15.60
2019-01-19T02:37:59.059Z,16.10
2019-01-19T02:38:59.042Z,15.90
2019-01-19T02:39:59.024Z,16.00
2019-01-19T02:40:59.012Z,16.80
2019-01-19T02:41:59.035Z,16.70
2019-01-19T02:42:58.989Z,17.10
2019-01-19T02:43:58.984Z,16.80
2019-01-19T02:44:58.971Z,17.10
2019-01-19T02:45:58.956Z,17.00
2019-01-19T02:46:58.944Z,16.60
2019-01-19T02:47:58.954Z,17.00
2019-01-19T02:48:58.937Z,17.40
2019-01-19T02:49:58.914Z,16.90
2019-01-19T02:50:58.906Z,16.80
2019-01-19T02:51:58.896Z,16.60
2019-01-19T02:52:58.883Z,17.30
2019-01-19T02:53:58.904Z,17.70
2019-01-19T02:54:58.858Z,17.00
2019-01-19T02:55:58.846Z,17.20
2019-01-19T02:56:58.836Z,17.90
2019-01-19T02:57:58.825Z,18.20
2019-01-19T02:58:58.825Z,19.00
2019-01-19T02:59:58.817Z,18.10
2019-01-19T03:00:58.798Z,19.10
2019-01-19T03:01:58.782Z,18.70
2019-01-19T03:02:58.770Z,18.30
2019-01-19T03:03:58.760Z,17.40
2019-01-19T03:04:58.754Z,18.50
2019-01-19T03:05:58.739Z,18.20
2019-01-19T03:06:58.748Z,17.60
2019-01-19T03:07:58.716Z,17.90
2019-01-19T03:08:58.710Z,18.20
2019-01-19T03:09:58.712Z,18.60
2019-01-19T03:10:58.683Z,17.60
2019-01-19T03:11:58.671Z,18.40
2019-01-19T03:12:58.680Z,18.60
2019-01-19T03:13:58.660Z,18.40
2019-01-19T03:14:58.665Z,18.20
2019-01-19T03:15:58.661Z,17.90
2019-01-19T03:16:58.621Z,18.50
2019-01-19T03:17:58.607Z,18.80
2019-01-19T03:18:58.595Z,18.60
2019-01-19T03:19:58.586Z,18.80
2019-01-19T03:20:58.581Z,18.80
2019-01-19T03:21:58.567Z,18.20
2019-01-19T03:22:58.556Z,19.90
2019-01-19T03:23:58.551Z,18.50
2019-01-19T03:24:58.554Z,19.00
2019-01-19T03:25:58.541Z,18.70
2019-01-19T03:26:58.531Z,19.20
2019-01-19T03:27:59.279Z,20.80
2019-01-19T03:28:58.497Z,19.90
2019-01-19T03:29:58.474Z,18.90
2019-01-19T03:30:58.489Z,21.10
2019-01-19T03:31:58.460Z,21.20
2019-01-19T03:32:58.466Z,21.00
2019-01-19T03:33:58.430Z,21.70
2019-01-19T03:34:58.420Z,22.60
2019-01-19T03:36:04.358Z,22.30
2019-01-19T03:36:59.409Z,22.30
2019-01-19T03:37:58.409Z,24.20
2019-01-19T03:38:58.394Z,24.80
2019-01-19T03:39:58.381Z,27.20
2019-01-19T03:40:58.358Z,24.90
2019-01-19T03:41:58.354Z,23.80
2019-01-19T03:42:58.339Z,23.00
2019-01-19T03:43:58.325Z,23.00
2019-01-19T03:44:58.316Z,23.10
2019-01-19T03:45:58.322Z,21.60
2019-01-19T03:46:58.306Z,21.00
2019-01-19T03:47:58.285Z,21.30
2019-01-19T03:48:58.272Z,21.10
2019-01-19T03:49:58.260Z,21.00
2019-01-19T03:50:58.258Z,21.10
2019-01-19T03:51:58.259Z,22.40
2019-01-19T03:52:58.242Z,23.70
2019-01-19T03:53:58.216Z,23.00
2019-01-19T03:54:58.208Z,23.90
2019-01-19T03:55:58.199Z,22.00
2019-01-19T03:56:58.185Z,22.80
2019-01-19T03:57:58.221Z,20.90
2019-01-19T03:58:58.171Z,21.30
2019-01-19T03:59:58.177Z,21.30
2019-01-19T04:00:58.156Z,20.70
2019-01-19T04:01:58.170Z,20.30
2019-01-19T04:02:58.149Z,21.40
2019-01-19T04:03:58.118Z,19.70
2019-01-19T04:04:58.143Z,20.40
2019-01-19T04:05:58.092Z,23.60
2019-01-19T04:06:58.088Z,21.80
2019-01-19T04:07:58.083Z,22.60
2019-01-19T04:08:58.089Z,22.00
2019-01-19T04:09:58.053Z,21.70
2019-01-19T04:10:58.060Z,21.90
2019-01-19T04:11:58.030Z,21.80
2019-01-19T04:12:58.032Z,22.80
2019-01-19T04:13:58.014Z,21.60
2019-01-19T04:14:58.006Z,21.50
2019-01-19T04:15:57.990Z,22.00
2019-01-19T04:16:57.973Z,22.50
2019-01-19T04:17:58.004Z,22.20
2019-01-19T04:18:57.982Z,22.80
2019-01-19T04:19:57.964Z,21.70
2019-01-19T04:20:57.938Z,22.80
2019-01-19T04:21:57.925Z,22.80
2019-01-19T04:22:57.908Z,22.30
2019-01-19T04:23:57.928Z,22.90
2019-01-19T04:24:57.885Z,22.90
2019-01-19T04:25:57.945Z,22.90
2019-01-19T04:26:57.881Z,23.10
2019-01-19T04:27:57.865Z,22.90
2019-01-19T04:28:57.884Z,24.20
2019-01-19T04:29:57.925Z,23.30
2019-01-19T04:30:57.820Z,23.10
2019-01-19T04:31:57.814Z,23.60
2019-01-19T04:32:57.804Z,23.20
2019-01-19T04:33:57.790Z,24.30
2019-01-19T04:34:57.793Z,23.20
2019-01-19T04:35:57.769Z,23.10
2019-01-19T04:36:57.755Z,24.60
2019-01-19T04:37:57.764Z,23.60
2019-01-19T04:38:57.744Z,23.20
2019-01-19T04:39:57.770Z,23.40
2019-01-19T04:40:57.746Z,24.70
2019-01-19T04:41:57.728Z,23.30
2019-01-19T04:42:57.688Z,25.40
2019-01-19T04:43:57.694Z,25.20
2019-01-19T04:44:57.706Z,25.50
2019-01-19T04:45:57.695Z,24.80
2019-01-19T04:46:57.656Z,24.20
2019-01-19T04:47:57.641Z,23.40
2019-01-19T04:48:57.632Z,25.00
2019-01-19T04:49:57.643Z,25.20
2019-01-19T04:50:57.622Z,25.60
2019-01-19T04:51:57.590Z,25.70
2019-01-19T04:52:57.600Z,24.50
2019-01-19T04:53:57.569Z,25.90
2019-01-19T04:54:57.594Z,24.60
2019-01-19T04:55:57.583Z,25.60
2019-01-19T04:56:57.561Z,25.40
2019-01-19T04:57:57.540Z,25.90
2019-01-19T04:58:57.531Z,25.50
2019-01-19T04:59:57.515Z,25.30
2019-01-19T05:00:57.531Z,25.90
2019-01-19T05:01:57.497Z,26.70
2019-01-19T05:02:57.485Z,26.30
2019-01-19T05:03:57.522Z,26.70
2019-01-19T05:04:57.469Z,26.60
2019-01-19T05:05:57.479Z,26.10
2019-01-19T05:06:57.457Z,25.80
2019-01-19T05:07:57.441Z,26.40
2019-01-19T05:08:57.417Z,27.00
2019-01-19T05:09:57.419Z,26.40
2019-01-19T05:10:57.396Z,27.00
2019-01-19T05:11:57.412Z,25.40
2019-01-19T05:12:57.375Z,26.70
2019-01-19T05:13:57.377Z,26.90
2019-01-19T05:14:57.422Z,26.10
2019-01-19T05:15:57.355Z,26.00
2019-01-19T05:16:57.343Z,25.60
2019-01-19T05:17:57.327Z,26.70
2019-01-19T05:18:57.366Z,26.30
2019-01-19T05:19:57.291Z,25.60
2019-01-19T05:20:57.291Z,24.50
2019-01-19T05:21:57.305Z,26.80
2019-01-19T05:22:57.273Z,25.90
2019-01-19T05:23:57.284Z,26.30
2019-01-19T05:24:57.250Z,26.00
2019-01-19T05:25:57.249Z,26.70
2019-01-19T05:26:57.259Z,27.00
2019-01-19T05:27:57.218Z,26.80
2019-01-19T05:28:57.219Z,26.20
2019-01-19T05:29:57.198Z,25.70
2019-01-19T05:30:57.208Z,25.90
2019-01-19T05:31:57.186Z,25.60
2019-01-19T05:32:57.160Z,25.00
2019-01-19T05:33:57.156Z,25.40
2019-01-19T05:34:57.135Z,25.30
2019-01-19T05:35:57.128Z,25.70
2019-01-19T05:36:57.123Z,26.30
2019-01-19T05:37:57.094Z,25.50
2019-01-19T05:38:57.088Z,25.00
2019-01-19T05:39:57.118Z,24.50
2019-01-19T05:40:57.065Z,24.30
2019-01-19T05:41:57.089Z,23.80
2019-01-19T05:42:57.052Z,23.90
2019-01-19T05:43:57.044Z,23.80
2019-01-19T05:44:57.023Z,23.70
2019-01-19T05:45:57.013Z,24.80
2019-01-19T05:46:57.026Z,24.30
2019-01-19T05:47:57.001Z,25.20
2019-01-19T05:48:56.999Z,24.40
2019-01-19T05:49:56.972Z,24.40
2019-01-19T05:50:56.957Z,23.80
2019-01-19T05:51:56.954Z,23.70
2019-01-19T05:52:56.949Z,23.50
2019-01-19T05:53:56.947Z,23.40
2019-01-19T05:54:56.925Z,22.90
2019-01-19T05:55:56.915Z,23.20
2019-01-19T05:56:56.957Z,22.70
2019-01-19T05:57:56.913Z,23.40
2019-01-19T05:58:56.875Z,22.60
2019-01-19T05:59:56.893Z,22.60
2019-01-19T06:00:56.870Z,23.30
2019-01-19T06:01:56.864Z,22.70
2019-01-19T06:02:56.883Z,22.40
2019-01-19T06:03:56.849Z,22.00
2019-01-19T06:04:56.816Z,21.50
2019-01-19T06:05:56.806Z,21.40
2019-01-19T06:06:56.788Z,21.80
2019-01-19T06:07:56.787Z,22.20
2019-01-19T06:08:56.799Z,22.70
2019-01-19T06:09:56.757Z,22.20
2019-01-19T06:10:56.751Z,22.30
2019-01-19T06:11:56.740Z,21.70
2019-01-19T06:12:56.767Z,22.40
2019-01-19T06:13:56.733Z,21.70
2019-01-19T06:14:56.722Z,21.20
2019-01-19T06:15:56.689Z,21.90
2019-01-19T06:16:56.739Z,20.80
2019-01-19T06:17:56.678Z,21.90
2019-01-19T06:18:56.675Z,21.80
2019-01-19T06:19:56.685Z,21.80
2019-01-19T06:20:56.649Z,21.60
2019-01-19T06:21:56.623Z,21.50
2019-01-19T06:22:56.622Z,21.00
2019-01-19T06:23:56.643Z,21.60
2019-01-19T06:24:56.641Z,21.70
2019-01-19T06:25:56.595Z,21.60
2019-01-19T06:26:56.580Z,20.90
2019-01-19T06:27:56.588Z,21.70
2019-01-19T06:28:56.550Z,21.90
2019-01-19T06:29:56.563Z,20.50
2019-01-19T06:30:56.533Z,20.60
2019-01-19T06:31:56.535Z,21.50
2019-01-19T06:32:56.516Z,21.40
2019-01-19T06:33:56.507Z,20.20
2019-01-19T06:34:56.545Z,19.90
2019-01-19T06:35:56.510Z,19.90
2019-01-19T06:36:56.497Z,19.70
2019-01-19T06:37:56.459Z,20.20
2019-01-19T06:38:56.453Z,19.50
2019-01-19T06:39:56.474Z,19.80
2019-01-19T06:40:56.420Z,18.70
2019-01-19T06:41:56.428Z,19.70
2019-01-19T06:42:56.436Z,19.10
2019-01-19T06:43:56.397Z,19.40
2019-01-19T06:44:56.398Z,19.50
2019-01-19T06:45:56.383Z,18.80
2019-01-19T06:46:56.359Z,18.50
2019-01-19T06:47:56.367Z,19.30
2019-01-19T06:48:56.422Z,19.80
2019-01-19T06:49:56.338Z,19.00
2019-01-19T06:50:56.354Z,19.60
2019-01-19T06:51:56.332Z,18.70
2019-01-19T06:52:56.327Z,19.20
2019-01-19T06:54:01.540Z,18.90
2019-01-19T06:54:57.291Z,19.30
2019-01-19T06:55:56.280Z,19.10
2019-01-19T06:56:56.269Z,17.80
2019-01-19T06:57:56.265Z,18.70
2019-01-19T06:58:56.284Z,19.40
2019-01-19T06:59:56.224Z,18.90
2019-01-19T07:00:56.215Z,18.90
2019-01-19T07:01:56.227Z,18.10
2019-01-19T07:02:56.202Z,19.20
2019-01-19T07:03:56.234Z,18.00
2019-01-19T07:04:56.168Z,18.30
2019-01-19T07:05:56.159Z,18.50
2019-01-19T07:07:02.649Z,18.90
2019-01-19T07:07:57.145Z,17.80
2019-01-19T07:08:56.275Z,17.80
2019-01-19T07:09:56.139Z,18.60
2019-01-19T07:10:56.102Z,19.20
2019-01-19T07:11:56.090Z,19.10
2019-01-19T07:12:56.084Z,19.40
2019-01-19T07:13:56.119Z,19.90
2019-01-19T07:14:56.066Z,19.20
2019-01-19T07:15:56.038Z,19.10
2019-01-19T07:16:56.043Z,19.50
2019-01-19T07:17:56.060Z,19.70
2019-01-19T07:18:56.019Z,18.80
2019-01-19T07:19:56.012Z,18.60
2019-01-19T07:20:55.995Z,19.90
2019-01-19T07:21:56.001Z,19.30
2019-01-19T07:22:55.993Z,19.10
2019-01-19T07:23:56.013Z,19.20
2019-01-19T07:24:55.969Z,18.80
2019-01-19T07:25:55.954Z,18.60
2019-01-19T07:26:55.935Z,18.90
2019-01-19T07:27:55.929Z,19.90
2019-01-19T07:28:55.950Z,18.90
2019-01-19T07:29:55.910Z,18.70
2019-01-19T07:30:55.897Z,19.50
2019-01-19T07:31:55.895Z,18.80
2019-01-19T07:32:55.867Z,19.90
2019-01-19T07:33:55.904Z,19.10
2019-01-19T07:34:55.872Z,19.70
2019-01-19T07:35:55.865Z,19.60
2019-01-19T07:36:55.854Z,18.40
2019-01-19T07:37:55.821Z,18.80
2019-01-19T07:38:55.837Z,18.70
2019-01-19T07:39:55.789Z,19.20
2019-01-19T07:40:55.798Z,18.70
2019-01-19T07:41:55.768Z,19.10
2019-01-19T07:42:55.795Z,18.50
2019-01-19T07:43:55.755Z,19.10
2019-01-19T07:44:55.747Z,20.00
2019-01-19T07:45:55.728Z,19.10
2019-01-19T07:46:56.070Z,19.10
2019-01-19T07:47:55.710Z,18.80
2019-01-19T07:48:55.697Z,18.70
2019-01-19T07:49:55.717Z,19.60
2019-01-19T07:50:55.689Z,18.80
2019-01-19T07:51:55.684Z,20.30
2019-01-19T07:52:55.697Z,21.40
2019-01-19T07:53:55.707Z,18.80
2019-01-19T07:54:55.636Z,18.90
2019-01-19T07:55:55.619Z,18.70
2019-01-19T07:56:55.623Z,19.90
2019-01-19T07:57:55.620Z,19.40
2019-01-19T07:58:55.620Z,18.70
2019-01-19T07:59:55.594Z,18.80
2019-01-19T08:00:55.591Z,19.10
2019-01-19T08:01:55.576Z,20.40
2019-01-19T08:02:55.555Z,18.70
2019-01-19T08:03:55.532Z,18.90
2019-01-19T08:04:55.516Z,19.30
2019-01-19T08:05:55.576Z,19.10
2019-01-19T08:06:55.538Z,19.20
2019-01-19T08:07:55.519Z,19.60
2019-01-19T08:08:55.476Z,18.90
2019-01-19T08:09:55.467Z,18.30
2019-01-19T08:10:55.474Z,19.00
2019-01-19T08:11:55.436Z,17.40
2019-01-19T08:12:55.428Z,18.70
2019-01-19T08:13:55.435Z,18.30
2019-01-19T08:14:55.433Z,18.80
2019-01-19T08:15:55.405Z,18.00
2019-01-19T08:16:55.388Z,19.20
2019-01-19T08:17:55.383Z,18.90
2019-01-19T08:18:55.365Z,18.90
2019-01-19T08:19:55.368Z,17.90
2019-01-19T08:20:55.382Z,19.20
2019-01-19T08:21:55.340Z,18.50
2019-01-19T08:22:55.317Z,18.50
2019-01-19T08:23:55.315Z,19.80
2019-01-19T08:24:55.296Z,19.80
2019-01-19T08:25:55.283Z,18.30
2019-01-19T08:26:55.300Z,18.20
2019-01-19T08:27:55.261Z,17.60
2019-01-19T08:28:55.246Z,17.20
2019-01-19T08:29:55.249Z,17.70
2019-01-19T08:30:55.237Z,17.80
2019-01-19T08:31:55.251Z,18.70
2019-01-19T08:32:55.219Z,18.60
2019-01-19T08:33:55.796Z,19.00
2019-01-19T08:34:55.182Z,18.70
2019-01-19T08:35:55.202Z,18.40
2019-01-19T08:36:55.178Z,18.20
2019-01-19T08:37:55.154Z,18.10
2019-01-19T08:38:55.160Z,18.30
2019-01-19T08:39:55.131Z,17.50
2019-01-19T08:40:56.234Z,17.00
2019-01-19T08:41:55.136Z,17.30
2019-01-19T08:42:55.096Z,19.50
2019-01-19T08:43:55.109Z,17.90
2019-01-19T08:44:55.078Z,17.50
2019-01-19T08:45:55.062Z,18.30
2019-01-19T08:46:55.077Z,18.10
2019-01-19T08:47:55.038Z,17.20
2019-01-19T08:48:55.028Z,17.80
2019-01-19T08:49:55.021Z,17.80
2019-01-19T08:50:55.008Z,18.10
2019-01-19T08:51:55.026Z,18.10
2019-01-19T08:52:54.989Z,18.40
2019-01-19T08:53:54.973Z,17.80
2019-01-19T08:54:54.965Z,17.90
2019-01-19T08:55:54.956Z,18.60
2019-01-19T08:56:54.952Z,18.60
2019-01-19T08:57:54.982Z,18.30
2019-01-19T08:58:54.928Z,18.30
2019-01-19T08:59:54.913Z,18.60
2019-01-19T09:00:54.909Z,18.20
2019-01-19T09:01:54.903Z,18.90
2019-01-19T09:02:54.879Z,17.40
2019-01-19T09:03:54.877Z,17.80
2019-01-19T09:04:54.866Z,18.60
2019-01-19T09:05:54.869Z,18.40
2019-01-19T09:06:54.841Z,18.70
2019-01-19T09:07:54.831Z,18.40
2019-01-19T09:08:54.814Z,18.80
2019-01-19T09:09:54.801Z,18.40
2019-01-19T09:10:54.792Z,18.90
2019-01-19T09:11:54.788Z,18.80
2019-01-19T09:12:54.800Z,18.40
2019-01-19T09:13:54.774Z,18.50
2019-01-19T09:14:54.766Z,18.40
2019-01-19T09:15:54.747Z,18.60
2019-01-19T09:16:54.760Z,18.80
2019-01-19T09:17:54.722Z,19.10
2019-01-19T09:18:54.765Z,18.60
2019-01-19T09:19:54.707Z,20.80
2019-01-19T09:20:54.688Z,18.00
2019-01-19T09:21:54.673Z,18.00
2019-01-19T09:22:54.704Z,17.70
2019-01-19T09:23:54.652Z,18.20
2019-01-19T09:24:54.641Z,17.30
2019-01-19T09:25:54.630Z,18.40
2019-01-19T09:26:54.618Z,15.10
2019-01-19T09:27:54.640Z,18.20
2019-01-19T09:28:54.598Z,18.50
2019-01-19T09:29:54.585Z,18.00
2019-01-19T09:30:54.574Z,18.20
2019-01-19T09:31:54.563Z,18.90
2019-01-19T09:32:54.550Z,19.80
2019-01-19T09:33:54.553Z,19.60
2019-01-19T09:34:54.533Z,18.60
2019-01-19T09:35:54.539Z,19.20
2019-01-19T09:36:54.532Z,19.10
2019-01-19T09:37:54.522Z,19.20
2019-01-19T09:38:54.492Z,19.30
2019-01-19T09:39:54.483Z,18.50
2019-01-19T09:40:54.490Z,18.70
2019-01-19T09:41:54.457Z,18.30
2019-01-19T09:42:54.465Z,18.30
2019-01-19T09:43:54.456Z,18.50
2019-01-19T09:44:54.419Z,18.60
2019-01-19T09:45:54.413Z,18.70
2019-01-19T09:46:54.406Z,19.90
2019-01-19T09:47:54.397Z,17.20
2019-01-19T09:48:54.395Z,18.90
2019-01-19T09:49:54.366Z,17.60
2019-01-19T09:50:54.355Z,17.90
2019-01-19T09:51:54.345Z,17.80
2019-01-19T09:52:54.349Z,18.40
2019-01-19T09:53:54.321Z,18.80
2019-01-19T09:54:54.314Z,18.30
2019-01-19T09:55:54.303Z,17.80
2019-01-19T09:56:54.289Z,18.60
2019-01-19T09:57:54.281Z,19.80
2019-01-19T09:58:54.280Z,20.20
2019-01-19T09:59:54.288Z,18.70
2019-01-19T10:00:54.257Z,18.10
2019-01-19T10:01:54.237Z,19.90
2019-01-19T10:02:54.231Z,19.40
2019-01-19T10:03:54.239Z,18.40
2019-01-19T10:04:54.235Z,18.30
2019-01-19T10:05:54.203Z,19.20
2019-01-19T10:06:54.197Z,19.60
2019-01-19T10:07:54.179Z,19.20
2019-01-19T10:08:54.168Z,19.90
2019-01-19T10:09:54.147Z,19.50
2019-01-19T10:10:54.167Z,19.40
2019-01-19T10:11:54.127Z,20.00
2019-01-19T10:12:54.116Z,19.40
2019-01-19T10:13:54.145Z,19.30
2019-01-19T10:14:54.119Z,20.00
2019-01-19T10:15:54.106Z,19.70
2019-01-19T10:16:54.071Z,20.60
2019-01-19T10:17:54.063Z,18.90
2019-01-19T10:18:54.064Z,20.00
2019-01-19T10:19:54.041Z,19.40
2019-01-19T10:20:54.048Z,19.20
2019-01-19T10:21:54.017Z,19.20
2019-01-19T10:22:54.004Z,20.30
2019-01-19T10:23:53.996Z,26.40
2019-01-19T10:24:53.993Z,19.60
2019-01-19T10:25:53.996Z,18.50
2019-01-19T10:26:54.088Z,19.30
2019-01-19T10:27:53.950Z,19.30
2019-01-19T10:28:53.944Z,20.40
2019-01-19T10:29:53.930Z,20.20
2019-01-19T10:30:53.917Z,20.00
2019-01-19T10:31:53.914Z,20.50
2019-01-19T10:32:53.921Z,19.90
2019-01-19T10:33:53.887Z,20.00
2019-01-19T10:34:53.878Z,20.90
2019-01-19T10:35:53.865Z,20.60
2019-01-19T10:36:53.877Z,20.40
2019-01-19T10:37:56.649Z,19.70
2019-01-19T10:38:53.846Z,20.00
2019-01-19T10:39:53.820Z,20.20
2019-01-19T10:40:53.812Z,20.50
2019-01-19T10:41:53.798Z,21.50
2019-01-19T10:42:53.793Z,21.00
2019-01-19T10:43:53.779Z,21.40
2019-01-19T10:44:53.786Z,20.10
2019-01-19T10:45:53.767Z,20.30
2019-01-19T10:46:53.746Z,20.40
2019-01-19T10:47:53.761Z,21.30
2019-01-19T10:48:53.723Z,20.50
2019-01-19T10:49:53.823Z,19.50
2019-01-19T10:50:53.698Z,20.50
2019-01-19T10:51:59.327Z,18.80
2019-01-19T10:52:54.697Z,19.80
2019-01-19T10:53:53.672Z,19.80
2019-01-19T10:54:53.655Z,18.60
2019-01-19T10:55:53.653Z,18.70
2019-01-19T10:56:53.652Z,19.00
2019-01-19T10:57:53.636Z,19.80
2019-01-19T10:58:53.629Z,19.40
2019-01-19T10:59:53.632Z,19.20
2019-01-19T11:00:53.596Z,20.90
2019-01-19T11:01:53.579Z,20.00
2019-01-19T11:02:53.568Z,19.70
2019-01-19T11:03:53.565Z,19.50
2019-01-19T11:04:53.558Z,19.20
2019-01-19T11:05:53.560Z,19.70
2019-01-19T11:06:53.525Z,19.30
2019-01-19T11:07:53.520Z,20.50
2019-01-19T11:08:53.501Z,20.70
2019-01-19T11:09:53.496Z,19.90
2019-01-19T11:10:53.495Z,20.90
2019-01-19T11:11:53.485Z,20.70
2019-01-19T11:12:53.463Z,21.20
2019-01-19T11:13:53.454Z,20.20
2019-01-19T11:14:53.441Z,20.90
2019-01-19T11:15:53.428Z,20.10
2019-01-19T11:16:53.417Z,20.10
2019-01-19T11:17:53.415Z,19.50
2019-01-19T11:18:53.419Z,20.60
2019-01-19T11:19:53.384Z,20.80
2019-01-19T11:20:53.387Z,19.80
2019-01-19T11:21:53.363Z,20.00
2019-01-19T11:22:53.354Z,19.90
2019-01-19T11:23:53.337Z,19.90
2019-01-19T11:24:53.342Z,19.30
2019-01-19T11:25:53.318Z,19.10
2019-01-19T11:26:53.310Z,20.70
2019-01-19T11:27:53.297Z,20.20
2019-01-19T11:28:53.287Z,20.30
2019-01-19T11:29:53.275Z,20.20
2019-01-19T11:30:53.270Z,20.40
2019-01-19T11:31:53.255Z,20.40
2019-01-19T11:32:53.240Z,20.90
2019-01-19T11:33:53.230Z,20.50
2019-01-19T11:34:53.216Z,21.00
2019-01-19T11:35:53.209Z,20.40
2019-01-19T11:36:53.221Z,19.70
2019-01-19T11:37:53.198Z,19.70
2019-01-19T11:38:53.210Z,20.50
2019-01-19T11:39:53.162Z,20.00
2019-01-19T11:40:53.150Z,19.80
2019-01-19T11:41:53.147Z,19.20
2019-01-19T11:42:53.140Z,18.30
2019-01-19T11:43:53.118Z,18.90
2019-01-19T11:44:53.129Z,18.70
2019-01-19T11:45:53.095Z,19.30
2019-01-19T11:46:53.089Z,20.00
2019-01-19T11:47:53.083Z,20.30
2019-01-19T11:48:53.063Z,19.90
2019-01-19T11:49:53.052Z,20.30
2019-01-19T11:50:53.071Z,19.90
2019-01-19T11:51:53.045Z,20.20
2019-01-19T11:52:53.019Z,20.10
2019-01-19T11:53:53.011Z,20.00
2019-01-19T11:54:53.000Z,20.90
2019-01-19T11:55:53.342Z,21.00
2019-01-19T11:56:52.982Z,20.10
2019-01-19T11:57:52.973Z,19.90
2019-01-19T11:58:52.959Z,20.90
2019-01-19T11:59:52.959Z,20.90
2019-01-19T12:00:52.946Z,20.80
2019-01-19T12:01:52.930Z,20.60
2019-01-19T12:02:52.915Z,20.40
2019-01-19T12:03:52.907Z,21.10
2019-01-19T12:04:52.894Z,21.30
2019-01-19T12:05:52.895Z,20.70
2019-01-19T12:06:52.893Z,20.00
2019-01-19T12:07:52.879Z,20.60
2019-01-19T12:08:52.850Z,20.90
2019-01-19T12:09:52.852Z,19.60
2019-01-19T12:10:52.825Z,19.70
2019-01-19T12:11:52.837Z,19.40
2019-01-19T12:12:52.822Z,20.20
2019-01-19T12:13:52.802Z,20.40
2019-01-19T12:14:52.806Z,19.60
2019-01-19T12:15:52.792Z,20.10
2019-01-19T12:16:52.798Z,19.30
2019-01-19T12:17:52.754Z,19.10
2019-01-19T12:18:52.764Z,19.50
2019-01-19T12:19:52.726Z,19.20
2019-01-19T12:20:52.730Z,18.20
2019-01-19T12:21:52.708Z,18.10
2019-01-19T12:22:52.710Z,18.90
2019-01-19T12:23:52.700Z,18.30
2019-01-19T12:24:52.686Z,18.50
2019-01-19T12:25:52.681Z,18.90
2019-01-19T12:26:52.660Z,18.20
2019-01-19T12:27:52.658Z,18.50
2019-01-19T12:28:52.669Z,18.60
2019-01-19T12:29:52.623Z,19.30
2019-01-19T12:30:52.612Z,18.40
2019-01-19T12:31:52.593Z,17.60
2019-01-19T12:32:52.642Z,18.50
2019-01-19T12:33:52.577Z,18.00
2019-01-19T12:34:52.561Z,17.80
2019-01-19T12:35:52.558Z,18.00
2019-01-19T12:36:52.558Z,17.80
2019-01-19T12:37:52.578Z,18.10
2019-01-19T12:38:52.556Z,19.00
2019-01-19T12:39:52.510Z,17.60
2019-01-19T12:40:52.559Z,16.80
2019-01-19T12:41:52.492Z,17.20
2019-01-19T12:42:52.480Z,16.80
2019-01-19T12:43:52.477Z,17.00
2019-01-19T12:44:52.466Z,17.10
2019-01-19T12:45:52.458Z,16.60
2019-01-19T12:46:52.436Z,15.30
2019-01-19T12:47:52.422Z,15.50
2019-01-19T12:48:52.447Z,15.90
2019-01-19T12:49:52.455Z,15.50
2019-01-19T12:50:52.416Z,15.00
2019-01-19T12:51:52.417Z,15.80